Time;durP1;ratioP1;P1;durP2;ratioP2;P2;SDS_P1;SDS_P2;PMS_P1;PMS_P2;Temp;Humidity;BMP_temperature;BMP_pressure;BME280_temperature;BME280_humidity;BME280_pressure;Samples;Min_cycle;Max_cycle;Signal;HPM_P1;HPM_P2
2022/04/13 00:00:55;;;;;;;0.90;0.70;;;14.30;99.90;;;;;;5055091;28;20620;-74
2022/04/13 00:03:21;;;;;;;1.10;0.60;;;14.30;99.90;;;;;;5055088;28;20208;-75
2022/04/13 00:05:48;;;;;;;1.57;1.20;;;14.20;99.90;;;;;;5055137;28;20425;-75
2022/04/13 00:08:14;;;;;;;0.80;0.50;;;14.10;99.90;;;;;;5055215;28;20409;-76
2022/04/13 00:10:40;;;;;;;0.80;0.53;;;14.10;99.90;;;;;;5055015;28;20416;-75
2022/04/13 00:13:05;;;;;;;0.90;0.70;;;14.10;99.90;;;;;;5055016;28;20241;-75
2022/04/13 00:15:31;;;;;;;0.80;0.50;;;14.10;99.90;;;;;;5054982;28;20178;-75
2022/04/13 00:17:56;;;;;;;0.80;0.50;;;14.00;99.90;;;;;;5055015;28;20278;-75
2022/04/13 00:20:22;;;;;;;1.13;1.03;;;14.00;99.90;;;;;;5055012;28;20250;-76
2022/04/13 00:22:48;;;;;;;0.80;0.50;;;14.00;99.90;;;;;;5053497;28;20170;-75
2022/04/13 00:25:14;;;;;;;0.80;0.60;;;14.00;99.90;;;;;;5054908;28;20171;-75
2022/04/13 00:27:39;;;;;;;0.80;0.70;;;14.00;99.90;;;;;;5054817;28;20851;-76
2022/04/13 00:30:06;;;;;;;0.83;0.60;;;14.00;99.90;;;;;;5054761;28;20254;-76
2022/04/13 00:32:33;;;;;;;0.80;0.60;;;14.00;99.90;;;;;;5053356;28;20214;-76
2022/04/13 00:35:02;;;;;;;0.90;0.80;;;13.90;99.90;;;;;;5054722;28;20401;-75
2022/04/13 00:37:28;;;;;;;1.10;1.00;;;14.00;99.90;;;;;;5054602;28;20487;-75
2022/04/13 00:39:54;;;;;;;0.80;0.50;;;14.00;99.90;;;;;;5054615;28;20426;-75
2022/04/13 00:42:19;;;;;;;1.03;0.80;;;13.90;99.90;;;;;;5054447;28;20163;-75
2022/04/13 00:44:45;;;;;;;0.80;0.77;;;13.90;99.90;;;;;;5054518;28;20163;-76
2022/04/13 00:47:13;;;;;;;1.00;0.70;;;13.90;99.90;;;;;;5054452;28;20191;-76
2022/04/13 00:49:40;;;;;;;0.80;0.60;;;13.90;99.90;;;;;;5054475;28;20171;-74
2022/04/13 00:52:06;;;;;;;1.37;0.70;;;13.90;99.90;;;;;;5054212;28;20412;-75
2022/04/13 00:54:33;;;;;;;1.10;0.80;;;13.90;99.90;;;;;;5054296;28;20413;-76
2022/04/13 00:57:00;;;;;;;0.90;0.60;;;13.90;99.90;;;;;;5053291;28;20510;-77
2022/04/13 00:59:26;;;;;;;0.87;0.67;;;13.90;99.90;;;;;;5054236;28;20401;-76
2022/04/13 01:01:57;;;;;;;0.90;0.60;;;14.00;99.90;;;;;;5052774;28;20768;-75
2022/04/13 01:04:23;;;;;;;0.90;0.60;;;14.00;99.90;;;;;;5054225;28;20943;-75
2022/04/13 01:06:49;;;;;;;4.63;0.77;;;14.00;99.90;;;;;;5054061;28;20421;-75
2022/04/13 01:09:17;;;;;;;0.90;0.70;;;14.00;99.90;;;;;;5054090;28;20408;-75
2022/04/13 01:11:43;;;;;;;0.80;0.80;;;14.00;99.90;;;;;;5053863;28;20393;-75
2022/04/13 01:14:09;;;;;;;0.90;0.73;;;14.00;99.90;;;;;;5053897;28;20416;-76
2022/04/13 01:16:37;;;;;;;0.80;0.60;;;14.00;99.90;;;;;;5053827;28;20183;-76
2022/04/13 01:19:04;;;;;;;2.10;2.00;;;14.00;99.90;;;;;;5053953;28;20404;-76
2022/04/13 01:22:03;;;;;;;1.60;1.10;;;14.00;99.90;;;;;;5052227;28;20402;-75
2022/04/13 01:24:29;;;;;;;0.80;0.50;;;14.10;99.90;;;;;;5053938;28;20401;-75
2022/04/13 01:26:55;;;;;;;0.80;0.60;;;14.10;99.90;;;;;;5053794;28;20938;-75
2022/04/13 01:29:21;;;;;;;1.47;0.77;;;14.10;99.90;;;;;;5053749;28;20440;-75
2022/04/13 01:31:46;;;;;;;0.90;0.70;;;14.10;99.90;;;;;;5053297;28;20171;-76
2022/04/13 01:34:13;;;;;;;0.80;0.60;;;14.10;99.90;;;;;;5053650;28;20661;-75
2022/04/13 01:36:38;;;;;;;1.00;0.90;;;14.10;99.90;;;;;;5053388;28;20328;-75
2022/04/13 01:39:05;;;;;;;0.90;0.60;;;14.10;99.90;;;;;;5053572;28;20481;-75
2022/04/13 01:41:31;;;;;;;0.80;0.60;;;14.10;99.90;;;;;;5051778;28;20163;-76
2022/04/13 01:43:57;;;;;;;0.90;0.70;;;14.10;99.90;;;;;;5053393;28;20408;-76
2022/04/13 01:46:24;;;;;;;1.10;0.80;;;14.00;99.90;;;;;;5053333;28;20781;-75
2022/04/13 01:48:49;;;;;;;1.37;1.27;;;14.00;99.90;;;;;;5053408;28;20246;-75
2022/04/13 01:51:17;;;;;;;0.90;0.60;;;14.00;99.90;;;;;;5051743;28;20492;-75
2022/04/13 01:53:43;;;;;;;1.40;1.30;;;14.00;99.90;;;;;;5053289;28;20202;-76
2022/04/13 01:56:08;;;;;;;0.80;0.50;;;14.00;99.90;;;;;;5052965;28;20453;-75
2022/04/13 01:58:34;;;;;;;0.90;0.70;;;14.00;99.90;;;;;;5053129;28;20515;-76
2022/04/13 02:01:00;;;;;;;0.90;0.60;;;13.90;99.90;;;;;;5052871;28;20167;-76
2022/04/13 02:03:26;;;;;;;0.70;0.50;;;13.80;99.90;;;;;;5051867;28;20202;-75
2022/04/13 02:05:53;;;;;;;0.80;0.60;;;13.80;99.90;;;;;;5052949;28;20651;-75
2022/04/13 02:08:22;;;;;;;0.80;0.70;;;13.80;99.90;;;;;;5052936;28;20776;-76
2022/04/13 02:10:48;;;;;;;0.90;0.70;;;13.70;99.90;;;;;;5052965;28;20406;-75
2022/04/13 02:13:14;;;;;;;0.90;0.63;;;13.70;99.90;;;;;;5052547;28;20402;-76
2022/04/13 02:15:40;;;;;;;0.80;0.70;;;13.60;99.90;;;;;;5051560;28;20796;-75
2022/04/13 02:18:06;;;;;;;0.80;0.60;;;13.60;99.90;;;;;;5052687;28;20198;-75
2022/04/13 02:20:32;;;;;;;0.80;0.60;;;13.60;99.90;;;;;;5052836;28;20401;-76
2022/04/13 02:22:58;;;;;;;0.90;0.80;;;13.50;99.90;;;;;;5052286;28;20495;-74
2022/04/13 02:25:24;;;;;;;1.00;0.77;;;13.50;99.90;;;;;;5052478;28;20402;-74
2022/04/13 02:27:49;;;;;;;0.77;0.60;;;13.40;99.90;;;;;;5052475;28;20591;-75
2022/04/13 02:30:15;;;;;;;2.10;1.00;;;13.40;99.90;;;;;;5051310;28;20175;-75
2022/04/13 02:32:44;;;;;;;1.73;0.93;;;13.40;99.90;;;;;;5052273;28;20238;-74
2022/04/13 02:35:10;;;;;;;0.80;0.50;;;13.30;99.90;;;;;;5052484;28;20413;-75
2022/04/13 02:37:35;;;;;;;0.80;0.60;;;13.20;99.90;;;;;;5052270;28;20499;-75
2022/04/13 02:40:01;;;;;;;1.10;0.60;;;13.20;99.90;;;;;;5052416;28;20429;-75
2022/04/13 02:42:34;;;;;;;1.97;0.97;;;13.20;99.90;;;;;;5052014;28;20165;-75
2022/04/13 02:45:00;;;;;;;0.80;0.60;;;13.10;99.90;;;;;;5052340;28;20390;-75
2022/04/13 02:47:27;;;;;;;0.80;0.60;;;13.10;99.90;;;;;;5052429;28;20958;-74
2022/04/13 02:49:53;;;;;;;0.80;0.60;;;13.10;99.90;;;;;;5052274;28;20513;-74
2022/04/13 02:52:19;;;;;;;3.30;2.73;;;13.00;99.90;;;;;;5051877;28;20914;-75
2022/04/13 02:54:44;;;;;;;0.80;0.60;;;13.00;99.90;;;;;;5050595;28;20402;-74
2022/04/13 02:57:10;;;;;;;0.80;0.60;;;13.00;99.90;;;;;;5051981;28;20244;-74
2022/04/13 02:59:35;;;;;;;0.70;0.50;;;13.00;99.90;;;;;;5052024;28;20163;-75
2022/04/13 03:02:01;;;;;;;3.13;0.90;;;12.90;99.90;;;;;;5051892;28;20166;-75
2022/04/13 03:04:26;;;;;;;1.03;0.80;;;12.90;99.90;;;;;;5050693;28;20620;-74
2022/04/13 03:06:52;;;;;;;0.80;0.60;;;12.90;99.90;;;;;;5051951;28;20194;-75
2022/04/13 03:09:17;;;;;;;0.80;0.60;;;12.90;99.90;;;;;;5051995;28;20167;-74
2022/04/13 03:11:43;;;;;;;1.57;1.40;;;12.90;99.90;;;;;;5051737;28;20526;-74
2022/04/13 03:14:08;;;;;;;4.03;0.80;;;12.90;99.90;;;;;;5051815;28;20186;-74
2022/04/13 03:16:34;;;;;;;1.23;0.93;;;12.90;99.90;;;;;;5051955;28;20178;-74
2022/04/13 03:19:00;;;;;;;1.90;1.80;;;12.80;99.90;;;;;;5051762;28;20205;-75
2022/04/13 03:21:26;;;;;;;0.80;0.60;;;12.80;99.90;;;;;;5051107;28;20628;-75
2022/04/13 03:23:52;;;;;;;0.80;0.60;;;12.80;99.90;;;;;;5051777;28;20399;-75
2022/04/13 03:26:18;;;;;;;1.10;0.70;;;12.80;99.90;;;;;;5051558;28;20417;-76
2022/04/13 03:28:43;;;;;;;0.80;0.60;;;12.80;99.90;;;;;;5051402;28;20686;-75
2022/04/13 03:31:09;;;;;;;0.80;0.50;;;12.70;99.90;;;;;;5050290;28;20170;-76
2022/04/13 03:33:35;;;;;;;0.80;0.60;;;12.70;99.90;;;;;;5051691;28;20174;-75
2022/04/13 03:36:00;;;;;;;1.00;0.73;;;12.70;99.90;;;;;;5051661;28;20185;-75
2022/04/13 03:38:26;;;;;;;7.47;0.70;;;12.70;99.90;;;;;;5051658;28;20226;-76
2022/04/13 03:40:51;;;;;;;0.73;0.50;;;12.70;99.90;;;;;;5051449;28;20250;-77
2022/04/13 03:43:17;;;;;;;0.80;0.50;;;12.70;99.90;;;;;;5051891;28;20580;-75
2022/04/13 03:45:42;;;;;;;0.90;0.67;;;12.70;99.90;;;;;;5051559;28;20703;-75
2022/04/13 03:48:08;;;;;;;0.80;0.50;;;12.70;99.90;;;;;;5051637;28;20175;-76
2022/04/13 03:50:33;;;;;;;0.70;0.50;;;12.70;99.90;;;;;;5051569;28;20170;-76
2022/04/13 03:52:59;;;;;;;0.70;0.50;;;12.70;99.90;;;;;;5051363;28;20163;-76
2022/04/13 03:55:24;;;;;;;1.20;0.70;;;12.70;99.90;;;;;;5051287;28;20265;-76
2022/04/13 03:57:51;;;;;;;0.80;0.60;;;12.70;99.90;;;;;;5051465;28;20195;-76
2022/04/13 04:00:16;;;;;;;0.90;0.57;;;12.70;99.90;;;;;;5051490;28;20293;-76
2022/04/13 04:02:43;;;;;;;0.80;0.50;;;12.70;99.90;;;;;;5051305;28;20965;-75
2022/04/13 04:05:09;;;;;;;0.90;0.70;;;12.70;99.90;;;;;;5051409;28;20246;-75
2022/04/13 04:07:36;;;;;;;1.13;1.03;;;12.70;99.90;;;;;;5050101;28;20438;-76
2022/04/13 04:10:01;;;;;;;0.70;0.50;;;12.70;99.90;;;;;;5050043;28;20401;-76
2022/04/13 04:12:27;;;;;;;0.80;0.80;;;12.70;99.90;;;;;;5051129;28;20763;-76
2022/04/13 04:14:57;;;;;;;0.87;0.60;;;12.60;99.90;;;;;;5051331;28;20587;-75
2022/04/13 04:17:23;;;;;;;4.67;1.37;;;12.60;99.90;;;;;;5051186;28;20877;-75
2022/04/13 04:19:48;;;;;;;1.57;0.93;;;12.60;99.90;;;;;;5051349;28;20409;-76
2022/04/13 04:22:15;;;;;;;1.77;1.27;;;12.60;99.90;;;;;;5051055;28;20527;-76
2022/04/13 04:24:40;;;;;;;1.63;1.30;;;12.60;99.90;;;;;;5051213;28;20531;-76
2022/04/13 04:27:06;;;;;;;1.10;1.00;;;12.60;99.90;;;;;;5051247;28;20428;-76
2022/04/13 04:29:31;;;;;;;0.80;0.60;;;12.60;99.90;;;;;;5051278;28;20701;-76
2022/04/13 04:31:59;;;;;;;0.70;0.53;;;12.60;99.90;;;;;;5049737;28;20178;-76
2022/04/13 04:34:26;;;;;;;0.70;0.50;;;12.60;99.90;;;;;;5053430;28;20174;-76
2022/04/13 04:36:52;;;;;;;0.70;0.50;;;12.60;99.90;;;;;;5053301;28;20433;-76
2022/04/13 04:39:17;;;;;;;0.80;0.50;;;12.60;99.90;;;;;;5054609;28;20488;-76
2022/04/13 04:41:43;;;;;;;0.80;0.67;;;12.60;99.90;;;;;;5054352;28;20167;-76
2022/04/13 04:44:10;;;;;;;0.80;0.80;;;12.60;99.90;;;;;;5053372;28;20167;-76
2022/04/13 04:46:36;;;;;;;0.80;0.50;;;12.60;99.90;;;;;;5054275;28;20202;-76
2022/04/13 04:49:03;;;;;;;1.13;1.03;;;12.60;99.90;;;;;;5054590;28;20413;-76
2022/04/13 04:51:31;;;;;;;0.80;0.70;;;12.60;99.90;;;;;;5054159;28;20420;-76
2022/04/13 04:53:57;;;;;;;0.80;0.60;;;12.60;99.90;;;;;;5054492;28;20510;-76
2022/04/13 04:56:23;;;;;;;0.80;0.60;;;12.60;99.90;;;;;;5054197;28;20818;-76
2022/04/13 04:58:48;;;;;;;0.80;0.80;;;12.60;99.90;;;;;;5054331;28;20463;-76
2022/04/13 05:01:14;;;;;;;0.80;0.50;;;12.60;99.90;;;;;;5054090;28;20578;-76
2022/04/13 05:03:41;;;;;;;1.87;1.33;;;12.70;99.90;;;;;;5054231;28;20175;-77
2022/04/13 05:06:07;;;;;;;1.97;1.33;;;12.70;99.90;;;;;;5054594;28;20197;-75
2022/04/13 05:08:32;;;;;;;0.80;0.50;;;12.70;99.90;;;;;;5054101;28;20406;-75
2022/04/13 05:10:58;;;;;;;0.90;0.70;;;12.70;99.90;;;;;;5054145;28;20167;-75
2022/04/13 05:13:24;;;;;;;0.73;0.50;;;12.80;99.90;;;;;;5053803;28;20172;-75
2022/04/13 05:15:49;;;;;;;0.70;0.50;;;12.80;99.90;;;;;;5054013;28;20425;-75
2022/04/13 05:18:15;;;;;;;0.80;0.60;;;12.80;99.90;;;;;;5052589;28;20205;-75
2022/04/13 05:20:41;;;;;;;0.80;0.50;;;12.90;99.90;;;;;;5052710;28;20174;-76
2022/04/13 05:23:06;;;;;;;2.23;0.90;;;12.90;99.90;;;;;;5053535;28;20666;-76
2022/04/13 05:25:32;;;;;;;0.80;0.60;;;13.00;99.90;;;;;;5053847;28;20216;-77
2022/04/13 05:27:57;;;;;;;0.80;0.80;;;13.00;99.90;;;;;;5053767;28;20171;-77
2022/04/13 05:30:23;;;;;;;1.60;0.90;;;13.10;99.90;;;;;;5053858;28;20521;-77
2022/04/13 05:32:56;;;;;;;0.80;0.60;;;13.20;99.90;;;;;;5053471;28;20528;-77
2022/04/13 05:35:23;;;;;;;1.20;1.10;;;13.30;99.90;;;;;;5053698;28;20523;-77
2022/04/13 05:37:49;;;;;;;0.80;0.50;;;13.40;99.90;;;;;;5053430;28;20543;-77
2022/04/13 05:40:15;;;;;;;0.93;0.67;;;13.60;99.90;;;;;;5053614;28;20459;-77
2022/04/13 05:42:41;;;;;;;0.80;0.50;;;13.80;99.90;;;;;;5053250;28;20195;-77
2022/04/13 05:45:07;;;;;;;1.20;0.90;;;14.00;99.90;;;;;;5053112;28;20492;-76
2022/04/13 05:47:33;;;;;;;1.60;1.50;;;14.10;99.90;;;;;;5053238;28;20197;-76
2022/04/13 05:49:58;;;;;;;1.10;0.80;;;14.30;99.90;;;;;;5053351;28;20409;-76
2022/04/13 05:52:24;;;;;;;1.20;1.00;;;14.60;99.90;;;;;;5053040;28;20257;-76
2022/04/13 05:54:49;;;;;;;1.17;0.90;;;14.80;99.90;;;;;;5051893;28;20183;-77
2022/04/13 05:57:15;;;;;;;0.80;0.60;;;15.00;99.90;;;;;;5053180;28;20202;-77
2022/04/13 05:59:40;;;;;;;0.80;0.60;;;15.30;99.90;;;;;;5053272;28;20217;-76
2022/04/13 06:02:06;;;;;;;2.10;1.20;;;15.50;99.90;;;;;;5052960;28;20517;-77
2022/04/13 06:04:31;;;;;;;1.97;1.77;;;15.60;99.90;;;;;;5053110;28;20624;-76
2022/04/13 06:06:59;;;;;;;1.47;1.37;;;15.70;99.90;;;;;;5053080;28;20638;-77
2022/04/13 06:09:25;;;;;;;0.80;0.60;;;15.80;99.90;;;;;;5052988;28;20159;-75
2022/04/13 06:11:51;;;;;;;0.80;0.60;;;16.00;99.90;;;;;;5052663;28;20894;-76
2022/04/13 06:14:17;;;;;;;0.87;0.70;;;16.20;99.90;;;;;;5052884;28;20182;-76
2022/04/13 06:16:42;;;;;;;1.10;0.80;;;16.30;99.90;;;;;;5052718;28;20421;-76
2022/04/13 06:19:08;;;;;;;0.80;0.67;;;16.50;99.90;;;;;;5052904;28;20421;-76
2022/04/13 06:21:34;;;;;;;1.40;1.30;;;16.80;99.90;;;;;;5052561;28;20417;-76
2022/04/13 06:23:59;;;;;;;0.90;0.80;;;17.00;99.90;;;;;;5052768;28;20178;-76
2022/04/13 06:26:25;;;;;;;2.50;1.00;;;17.30;99.90;;;;;;5052707;28;20187;-76
2022/04/13 06:28:52;;;;;;;1.00;0.80;;;17.70;99.90;;;;;;5052673;28;20700;-76
2022/04/13 06:31:18;;;;;;;1.63;1.33;;;18.00;99.90;;;;;;5052616;28;20548;-76
2022/04/13 06:33:43;;;;;;;3.27;1.23;;;18.30;99.90;;;;;;5051630;28;20956;-75
2022/04/13 06:36:09;;;;;;;1.10;1.00;;;18.70;99.90;;;;;;5052715;28;20425;-75
2022/04/13 06:38:35;;;;;;;1.97;1.53;;;19.20;99.90;;;;;;5052567;28;20272;-76
2022/04/13 06:41:01;;;;;;;1.00;0.87;;;19.70;99.90;;;;;;5052436;28;20180;-76
2022/04/13 06:43:26;;;;;;;1.30;1.13;;;20.40;99.90;;;;;;5052102;28;20917;-77
2022/04/13 06:45:53;;;;;;;5.37;2.07;;;21.10;99.90;;;;;;5052275;28;20429;-77
2022/04/13 06:48:20;;;;;;;1.97;1.00;;;21.90;99.90;;;;;;5052354;28;20640;-76
2022/04/13 06:50:45;;;;;;;1.60;1.27;;;22.70;99.90;;;;;;5050949;28;20401;-77
2022/04/13 06:53:13;;;;;;;1.40;1.00;;;23.40;99.90;;;;;;5051983;28;20492;-76
2022/04/13 06:55:39;;;;;;;1.23;1.13;;;24.20;99.90;;;;;;5051244;28;20247;-77
2022/04/13 06:58:06;;;;;;;2.00;1.30;;;24.90;99.50;;;;;;5052130;28;20484;-77
2022/04/13 07:00:32;;;;;;;4.93;1.60;;;25.40;95.60;;;;;;5050891;28;20441;-77
2022/04/13 07:02:58;;;;;;;1.80;1.70;;;25.90;92.00;;;;;;5051897;28;20440;-77
2022/04/13 07:05:27;;;;;;;4.10;1.00;;;26.60;89.50;;;;;;5051864;28;20401;-76
2022/04/13 07:07:55;;;;;;;2.90;1.80;;;27.10;83.30;;;;;;5052005;28;20202;-76
2022/04/13 07:10:21;;;;;;;1.97;1.50;;;27.60;76.50;;;;;;5052052;28;20741;-76
2022/04/13 07:12:46;;;;;;;1.17;1.07;;;28.20;74.70;;;;;;5050498;28;20409;-76
2022/04/13 07:15:14;;;;;;;2.07;1.00;;;28.80;71.50;;;;;;5051910;28;20171;-76
2022/04/13 07:17:39;;;;;;;3.03;2.07;;;29.00;66.00;;;;;;5051745;28;20191;-76
2022/04/13 07:20:05;;;;;;;1.43;1.33;;;29.30;64.60;;;;;;5051962;28;20475;-77
2022/04/13 07:22:31;;;;;;;1.40;1.30;;;29.60;60.80;;;;;;5050360;28;20171;-77
2022/04/13 07:24:56;;;;;;;4.43;1.57;;;29.90;59.10;;;;;;5051818;28;20405;-77
2022/04/13 07:27:22;;;;;;;2.80;1.40;;;30.30;57.70;;;;;;5051754;28;20304;-77
2022/04/13 07:29:47;;;;;;;1.40;1.10;;;30.60;56.70;;;;;;5051661;28;20369;-77
2022/04/13 07:32:16;;;;;;;1.63;1.53;;;30.90;55.60;;;;;;5051461;28;20641;-77
2022/04/13 07:34:41;;;;;;;2.87;2.67;;;31.10;54.50;;;;;;5051778;28;20174;-77
2022/04/13 07:37:07;;;;;;;1.43;1.20;;;31.40;53.70;;;;;;5051599;28;20457;-76
2022/04/13 07:39:32;;;;;;;1.23;1.13;;;31.60;53.30;;;;;;5051797;28;20167;-76
2022/04/13 07:41:58;;;;;;;1.20;1.10;;;32.10;52.30;;;;;;5051422;28;20178;-77
2022/04/13 07:44:23;;;;;;;1.97;1.50;;;32.40;51.10;;;;;;5050464;28;20515;-77
2022/04/13 07:46:49;;;;;;;1.47;1.37;;;32.90;50.40;;;;;;5050342;28;20187;-77
2022/04/13 07:49:14;;;;;;;1.10;1.00;;;33.30;50.20;;;;;;5050292;28;20612;-76
2022/04/13 07:51:40;;;;;;;1.70;1.60;;;33.80;49.10;;;;;;5051150;28;20165;-77
2022/04/13 07:54:06;;;;;;;1.57;1.47;;;34.20;47.40;;;;;;5050341;28;20536;-77
2022/04/13 07:56:32;;;;;;;3.33;3.13;;;34.50;46.60;;;;;;5051370;28;20469;-77
2022/04/13 07:58:58;;;;;;;5.63;2.00;;;34.70;46.00;;;;;;5051519;28;20876;-78
2022/04/13 08:01:23;;;;;;;2.37;2.03;;;34.90;45.10;;;;;;5051514;28;20761;-75
2022/04/13 08:03:49;;;;;;;1.43;1.20;;;35.30;45.00;;;;;;5051358;28;20510;-75
2022/04/13 08:06:15;;;;;;;2.47;2.27;;;35.40;43.90;;;;;;5051887;28;20191;-76
2022/04/13 08:08:40;;;;;;;1.63;1.53;;;35.60;43.40;;;;;;5055339;28;20246;-76
2022/04/13 08:11:06;;;;;;;1.27;1.17;;;35.60;43.00;;;;;;5055420;28;20167;-76
2022/04/13 08:13:33;;;;;;;2.90;2.40;;;35.70;43.10;;;;;;5053765;28;20167;-78
2022/04/13 08:15:58;;;;;;;1.10;1.00;;;36.00;42.20;;;;;;5054953;28;20190;-77
2022/04/13 08:18:24;;;;;;;1.53;1.43;;;36.70;42.00;;;;;;5055051;28;20544;-76
2022/04/13 08:20:50;;;;;;;3.70;1.70;;;37.10;41.00;;;;;;5054966;28;20167;-77
2022/04/13 08:23:16;;;;;;;1.83;1.37;;;37.60;40.60;;;;;;5053462;28;20167;-77
2022/04/13 08:25:42;;;;;;;4.60;1.67;;;38.10;39.90;;;;;;5054972;28;20252;-77
2022/04/13 08:28:08;;;;;;;2.70;1.83;;;38.70;40.00;;;;;;5054917;28;20504;-77
2022/04/13 08:30:34;;;;;;;1.83;1.63;;;39.00;38.60;;;;;;5055039;28;20170;-78
2022/04/13 08:32:59;;;;;;;1.73;1.43;;;39.60;37.80;;;;;;5054712;28;20397;-78
2022/04/13 08:35:25;;;;;;;1.43;1.33;;;40.10;37.80;;;;;;5054853;28;20175;-78
2022/04/13 08:37:50;;;;;;;3.27;1.70;;;40.80;37.00;;;;;;5054765;28;20226;-75
2022/04/13 08:40:17;;;;;;;1.47;1.20;;;41.30;36.90;;;;;;5054827;28;20177;-76
2022/04/13 08:43:07;;;;;;;3.60;2.43;;;41.60;36.20;;;;;;5054188;28;20171;-75
2022/04/13 08:45:46;;;;;;;1.50;1.40;;;42.20;35.60;;;;;;5054480;28;20799;-75
2022/04/13 08:48:12;;;;;;;2.70;1.80;;;42.80;34.70;;;;;;5054558;28;20417;-76
2022/04/13 08:50:41;;;;;;;1.67;1.57;;;43.40;33.70;;;;;;5054494;28;20413;-76
2022/04/13 08:53:12;;;;;;;1.80;1.70;;;43.70;33.20;;;;;;5054207;28;20492;-76
2022/04/13 08:55:45;;;;;;;3.30;3.00;;;43.90;32.80;;;;;;5054330;28;20847;-76
2022/04/13 08:58:30;;;;;;;2.75;2.15;;;44.30;32.80;;;;;;5054151;28;20808;-73
2022/04/13 09:00:59;;;;;;;1.40;1.30;;;44.80;32.20;;;;;;5054438;28;20198;-74
2022/04/13 09:03:43;;;;;;;2.33;1.80;;;44.80;31.30;;;;;;5053971;28;20433;-74
2022/04/13 09:06:10;;;;;;;1.87;1.77;;;45.10;31.80;;;;;;5054335;28;20429;-74
2022/04/13 09:08:52;;;;;;;1.30;1.20;;;45.70;30.80;;;;;;5052994;28;20992;-74
2022/04/13 09:11:22;;;;;;;4.47;2.30;;;46.30;30.40;;;;;;5054135;28;20553;-74
2022/04/13 09:13:49;;;;;;;2.20;1.80;;;46.70;30.00;;;;;;5053815;28;20409;-74
2022/04/13 09:16:16;;;;;;;2.40;2.20;;;47.10;30.10;;;;;;5053956;28;20433;-74
2022/04/13 09:18:45;;;;;;;1.70;1.50;;;47.20;29.90;;;;;;5051846;28;20970;-74
2022/04/13 09:21:12;;;;;;;2.10;1.90;;;47.10;29.60;;;;;;5053970;28;20405;-74
2022/04/13 09:23:38;;;;;;;2.70;2.33;;;46.90;29.40;;;;;;5053753;28;20368;-74
2022/04/13 09:26:05;;;;;;;2.60;1.40;;;46.50;29.20;;;;;;5053733;28;20888;-74
2022/04/13 09:28:30;;;;;;;1.80;1.70;;;45.80;29.30;;;;;;5053885;28;20163;-74
2022/04/13 09:30:56;;;;;;;3.00;2.40;;;45.00;29.50;;;;;;5053817;28;20387;-73
2022/04/13 09:33:23;;;;;;;1.90;1.80;;;44.10;30.00;;;;;;5053415;28;20228;-73
2022/04/13 09:35:49;;;;;;;2.23;2.13;;;43.20;30.20;;;;;;5053595;28;20187;-74
2022/04/13 09:38:16;;;;;;;2.13;1.43;;;41.90;30.80;;;;;;5052329;28;20456;-73
2022/04/13 09:40:43;;;;;;;2.00;1.80;;;40.70;31.60;;;;;;5053645;28;20166;-73
2022/04/13 09:43:16;;;;;;;2.77;1.87;;;39.80;32.50;;;;;;5053379;28;20413;-73
2022/04/13 09:45:44;;;;;;;1.30;1.10;;;39.00;33.50;;;;;;5053362;28;20417;-73
2022/04/13 09:48:17;;;;;;;1.87;1.60;;;37.90;34.20;;;;;;5053360;28;20410;-73
2022/04/13 09:50:44;;;;;;;2.00;1.53;;;36.90;35.30;;;;;;5053437;28;20401;-73
2022/04/13 09:53:12;;;;;;;1.70;1.60;;;35.90;36.30;;;;;;5053057;28;20567;-73
2022/04/13 09:55:43;;;;;;;2.13;1.87;;;35.10;37.30;;;;;;5053056;28;20423;-73
2022/04/13 09:58:12;;;;;;;1.10;1.00;;;34.80;38.10;;;;;;5053136;28;20445;-73
2022/04/13 10:00:40;;;;;;;2.80;1.97;;;34.70;38.40;;;;;;5053198;28;20488;-73
2022/04/13 10:03:08;;;;;;;2.17;1.53;;;35.10;38.60;;;;;;5053386;28;20404;-73
2022/04/13 10:05:34;;;;;;;2.20;1.57;;;36.20;38.70;;;;;;5052840;28;20933;-73
2022/04/13 10:08:10;;;;;;;1.13;1.03;;;37.40;38.10;;;;;;5052935;28;20482;-73
2022/04/13 10:10:46;;;;;;;2.03;1.93;;;38.20;36.70;;;;;;5052887;28;20914;-73
2022/04/13 10:13:30;;;;;;;2.73;1.70;;;37.90;35.80;;;;;;5052728;28;20435;-73
2022/04/13 10:15:57;;;;;;;1.10;1.00;;;38.70;36.10;;;;;;5052798;28;20456;-73
2022/04/13 10:18:23;;;;;;;1.53;1.43;;;40.40;35.00;;;;;;5052305;28;20809;-74
2022/04/13 10:20:48;;;;;;;1.80;1.70;;;42.00;33.90;;;;;;5052522;28;20459;-73
2022/04/13 10:23:15;;;;;;;1.40;1.30;;;43.60;32.80;;;;;;5052417;28;20875;-73
2022/04/13 10:25:42;;;;;;;1.30;1.20;;;44.30;32.00;;;;;;5052675;28;20550;-73
2022/04/13 10:28:11;;;;;;;1.60;1.47;;;44.50;31.10;;;;;;5052722;28;20520;-73
2022/04/13 10:30:39;;;;;;;1.50;1.40;;;45.00;31.00;;;;;;5052605;28;20475;-73
2022/04/13 10:33:06;;;;;;;2.27;1.80;;;46.00;30.40;;;;;;5051047;28;20442;-74
2022/04/13 10:35:34;;;;;;;1.83;1.40;;;46.50;29.90;;;;;;5052405;28;20409;-74
2022/04/13 10:38:00;;;;;;;1.50;1.10;;;46.60;29.50;;;;;;5052466;28;20946;-74
2022/04/13 10:40:30;;;;;;;3.67;1.33;;;47.00;29.20;;;;;;5052499;28;20401;-73
2022/04/13 10:43:00;;;;;;;2.97;2.10;;;47.70;29.10;;;;;;5052249;28;20433;-74
2022/04/13 10:45:30;;;;;;;2.13;2.00;;;48.30;28.60;;;;;;5052319;28;20377;-74
2022/04/13 10:48:28;;;;;;;1.30;1.20;;;48.00;27.90;;;;;;5052413;28;20416;-74
2022/04/13 10:50:54;;;;;;;2.80;1.30;;;47.40;28.20;;;;;;5051003;28;20489;-74
2022/04/13 10:53:30;;;;;;;3.30;2.17;;;47.50;28.50;;;;;;5052048;28;20383;-73
2022/04/13 10:56:03;;;;;;;2.00;1.80;;;47.60;28.70;;;;;;5052126;28;20444;-74
2022/04/13 10:58:40;;;;;;;1.90;1.80;;;47.10;28.60;;;;;;5052083;28;20783;-74
2022/04/13 11:01:12;;;;;;;2.50;1.60;;;46.40;28.40;;;;;;5052068;28;20904;-73
2022/04/13 11:03:38;;;;;;;1.20;1.10;;;45.30;28.70;;;;;;5052035;28;20389;-74
2022/04/13 11:06:08;;;;;;;2.33;1.47;;;43.70;29.30;;;;;;5051988;28;20413;-74
2022/04/13 11:08:51;;;;;;;2.20;1.43;;;42.20;30.20;;;;;;5052145;28;20405;-74
2022/04/13 11:11:22;;;;;;;1.63;1.50;;;40.60;31.20;;;;;;5050753;28;20513;-73
2022/04/13 11:13:51;;;;;;;1.60;1.50;;;39.30;32.40;;;;;;5051756;28;20933;-73
2022/04/13 11:16:25;;;;;;;1.93;1.83;;;38.20;33.80;;;;;;5051836;28;20812;-76
2022/04/13 11:19:06;;;;;;;1.93;1.50;;;37.40;34.60;;;;;;5050658;28;20507;-76
2022/04/13 11:21:51;;;;;;;1.37;1.27;;;36.80;35.40;;;;;;5051797;28;20412;-76
2022/04/13 11:24:33;;;;;;;1.50;1.40;;;36.40;36.00;;;;;;5051602;28;20420;-76
2022/04/13 11:26:58;;;;;;;2.03;1.83;;;36.20;36.50;;;;;;5050433;28;20512;-76
2022/04/13 11:29:35;;;;;;;1.60;1.40;;;35.90;36.90;;;;;;5051737;28;20504;-73
2022/04/13 11:32:04;;;;;;;2.37;1.40;;;35.80;37.50;;;;;;5051074;28;20195;-73
2022/04/13 11:34:50;;;;;;;1.60;1.50;;;35.80;37.30;;;;;;5051713;28;20436;-73
2022/04/13 11:37:18;;;;;;;1.17;1.00;;;35.80;37.40;;;;;;5046396;28;21036;-73
2022/04/13 11:39:43;;;;;;;2.70;1.60;;;35.40;37.90;;;;;;5051328;28;20756;-73
2022/04/13 11:42:21;;;;;;;1.50;1.40;;;34.80;37.80;;;;;;5053333;28;20400;-73
2022/04/13 11:44:51;;;;;;;2.60;1.07;;;34.10;38.50;;;;;;5055689;28;20167;-73
2022/04/13 11:47:18;;;;;;;8.20;1.43;;;33.80;39.30;;;;;;5055629;28;20782;-73
2022/04/13 11:50:18;;;;;;;4.37;1.63;;;33.40;40.00;;;;;;5055402;28;20440;-73
2022/04/13 11:53:01;;;;;;;2.33;1.33;;;33.10;40.60;;;;;;5055359;28;20412;-72
2022/04/13 11:55:42;;;;;;;1.57;1.23;;;32.70;41.10;;;;;;5055401;28;20432;-72
2022/04/13 11:58:07;;;;;;;2.30;1.80;;;32.60;41.60;;;;;;5055434;28;20540;-75
2022/04/13 12:01:08;;;;;;;3.23;1.10;;;32.80;41.60;;;;;;5054185;28;20492;-75
2022/04/13 12:03:41;;;;;;;5.50;3.70;;;33.10;41.60;;;;;;5055027;28;20209;-75
2022/04/13 12:06:16;;;;;;;4.17;1.70;;;33.30;41.80;;;;;;5055220;28;20443;-75
2022/04/13 12:08:46;;;;;;;2.13;1.40;;;34.50;41.10;;;;;;5054963;28;20407;-75
2022/04/13 12:11:13;;;;;;;2.23;1.30;;;36.00;39.50;;;;;;5035244;28;20405;-75
2022/04/13 12:13:52;;;;;;;1.67;1.30;;;37.20;38.20;;;;;;5034912;28;20926;-75
2022/04/13 12:16:26;;;;;;;5.33;1.47;;;38.10;37.00;;;;;;5035121;28;20900;-75
2022/04/13 12:18:54;;;;;;;1.33;1.23;;;39.70;36.20;;;;;;5035126;28;20454;-76
2022/04/13 12:21:22;;;;;;;1.93;1.80;;;41.50;34.20;;;;;;5035086;28;20402;-76
2022/04/13 12:23:51;;;;;;;1.70;1.40;;;42.90;32.70;;;;;;5034839;28;20406;-73
2022/04/13 12:26:27;;;;;;;1.50;1.37;;;44.00;32.00;;;;;;5034956;28;20422;-73
2022/04/13 12:28:53;;;;;;;1.60;1.40;;;45.10;30.90;;;;;;5034902;28;20410;-75
2022/04/13 12:31:19;;;;;;;2.60;2.40;;;46.10;30.00;;;;;;5034972;28;20405;-73
2022/04/13 12:33:44;;;;;;;1.40;1.30;;;46.20;29.40;;;;;;5034634;28;20168;-73
2022/04/13 12:36:11;;;;;;;1.03;0.93;;;45.80;29.10;;;;;;5034808;28;20187;-73
2022/04/13 12:38:41;;;;;;;2.50;1.43;;;44.70;29.40;;;;;;5034808;28;20226;-73
2022/04/13 12:41:15;;;;;;;2.93;2.60;;;43.20;29.70;;;;;;5034771;28;20398;-75
2022/04/13 12:43:43;;;;;;;1.30;1.20;;;41.70;30.00;;;;;;5034474;28;20474;-75
2022/04/13 12:46:09;;;;;;;1.30;1.17;;;40.10;31.60;;;;;;5034715;28;20418;-74
2022/04/13 12:48:36;;;;;;;1.10;1.00;;;38.70;32.70;;;;;;5034812;28;20752;-74
2022/04/13 12:51:03;;;;;;;1.20;1.10;;;37.30;33.70;;;;;;5034632;28;20468;-74